sensor_id;sensor_type;location;lat;lon;timestamp;pressure;altitude;pressure_sealevel;temperature;humidity
59825;BME280;45703;50.898;6.054;2023-07-13T00:01:12;100098.75;;;17.44;60.83
59825;BME280;45703;50.898;6.054;2023-07-13T00:03:38;100092.53;;;17.43;60.77
59825;BME280;45703;50.898;6.054;2023-07-13T00:06:06;100090.38;;;17.41;60.74
59825;BME280;45703;50.898;6.054;2023-07-13T00:08:32;100097.91;;;17.39;60.73
59825;BME280;45703;50.898;6.054;2023-07-13T00:11:01;100091.44;;;17.40;60.29
59825;BME280;45703;50.898;6.054;2023-07-13T00:13:28;100101.69;;;17.33;61.19
59825;BME280;45703;50.898;6.054;2023-07-13T00:15:55;100105.69;;;17.30;61.47
59825;BME280;45703;50.898;6.054;2023-07-13T00:18:21;100105.69;;;17.25;61.56
59825;BME280;45703;50.898;6.054;2023-07-13T00:20:46;100112.16;;;17.24;61.78
59825;BME280;45703;50.898;6.054;2023-07-13T00:23:13;100108.94;;;17.27;61.74
59825;BME280;45703;50.898;6.054;2023-07-13T00:25:38;100097.88;;;17.24;61.48
59825;BME280;45703;50.898;6.054;2023-07-13T00:28:04;100102.19;;;17.20;61.77
59825;BME280;45703;50.898;6.054;2023-07-13T00:30:29;100103.81;;;17.21;62.32
59825;BME280;45703;50.898;6.054;2023-07-13T00:32:55;100109.19;;;17.16;62.80
59825;BME280;45703;50.898;6.054;2023-07-13T00:35:20;100095.72;;;17.21;62.44
59825;BME280;45703;50.898;6.054;2023-07-13T00:37:46;100104.06;;;17.19;62.94
59825;BME280;45703;50.898;6.054;2023-07-13T00:40:13;100101.66;;;17.13;62.26
59825;BME280;45703;50.898;6.054;2023-07-13T00:42:39;100105.13;;;17.08;62.97
59825;BME280;45703;50.898;6.054;2023-07-13T00:47:33;100099.97;;;17.02;63.19
59825;BME280;45703;50.898;6.054;2023-07-13T00:49:59;100108.06;;;17.07;63.46
59825;BME280;45703;50.898;6.054;2023-07-13T00:52:25;100094.31;;;16.98;63.20
59825;BME280;45703;50.898;6.054;2023-07-13T00:54:51;100097.28;;;16.97;63.37
59825;BME280;45703;50.898;6.054;2023-07-13T00:57:19;100097.00;;;16.93;63.81
59825;BME280;45703;50.898;6.054;2023-07-13T00:59:50;100095.38;;;16.87;63.94
59825;BME280;45703;50.898;6.054;2023-07-13T01:02:17;100093.75;;;16.86;63.71
59825;BME280;45703;50.898;6.054;2023-07-13T01:04:43;100103.47;;;16.87;63.87
59825;BME280;45703;50.898;6.054;2023-07-13T01:07:10;100099.41;;;16.85;63.09
59825;BME280;45703;50.898;6.054;2023-07-13T01:09:35;100098.59;;;16.84;64.26
59825;BME280;45703;50.898;6.054;2023-07-13T01:12:01;100088.59;;;16.75;63.55
59825;BME280;45703;50.898;6.054;2023-07-13T01:14:26;100104.22;;;16.78;64.04
59825;BME280;45703;50.898;6.054;2023-07-13T01:16:52;100081.56;;;16.69;63.90
59825;BME280;45703;50.898;6.054;2023-07-13T01:21:50;100099.91;;;16.72;64.63
59825;BME280;45703;50.898;6.054;2023-07-13T01:24:15;100088.03;;;16.68;64.04
59825;BME280;45703;50.898;6.054;2023-07-13T01:26:40;100088.03;;;16.68;63.97
59825;BME280;45703;50.898;6.054;2023-07-13T01:29:06;100079.91;;;16.63;64.09
59825;BME280;45703;50.898;6.054;2023-07-13T01:31:32;100089.88;;;16.62;64.57
59825;BME280;45703;50.898;6.054;2023-07-13T01:33:58;100089.88;;;16.67;64.36
59825;BME280;45703;50.898;6.054;2023-07-13T01:36:23;100085.53;;;16.56;64.56
59825;BME280;45703;50.898;6.054;2023-07-13T01:38:49;100090.66;;;16.58;64.93
59825;BME280;45703;50.898;6.054;2023-07-13T01:41:14;100082.06;;;16.61;64.35
59825;BME280;45703;50.898;6.054;2023-07-13T01:43:40;100085.25;;;16.53;64.72
59825;BME280;45703;50.898;6.054;2023-07-13T01:46:05;100084.44;;;16.52;64.81
59825;BME280;45703;50.898;6.054;2023-07-13T01:48:30;100080.66;;;16.48;65.00
59825;BME280;45703;50.898;6.054;2023-07-13T01:50:56;100086.31;;;16.47;65.81
59825;BME280;45703;50.898;6.054;2023-07-13T01:53:21;100079.28;;;16.41;65.39
59825;BME280;45703;50.898;6.054;2023-07-13T01:55:47;100087.34;;;16.41;65.83
59825;BME280;45703;50.898;6.054;2023-07-13T01:58:12;100094.38;;;16.42;65.92
59825;BME280;45703;50.898;6.054;2023-07-13T02:00:38;100100.28;;;16.39;66.23
59825;BME280;45703;50.898;6.054;2023-07-13T02:03:03;100093.22;;;16.33;65.98
59825;BME280;45703;50.898;6.054;2023-07-13T02:05:29;100101.09;;;16.34;65.46
59825;BME280;45703;50.898;6.054;2023-07-13T02:07:54;100099.69;;;16.32;65.24
59825;BME280;45703;50.898;6.054;2023-07-13T02:10:19;100104.25;;;16.31;65.28
59825;BME280;45703;50.898;6.054;2023-07-13T02:12:45;100096.97;;;16.27;65.12
59825;BME280;45703;50.898;6.054;2023-07-13T02:15:10;100102.59;;;16.25;66.00
59825;BME280;45703;50.898;6.054;2023-07-13T02:17:36;100106.91;;;16.26;65.71
59825;BME280;45703;50.898;6.054;2023-07-13T02:20:03;100113.09;;;16.22;65.64
59825;BME280;45703;50.898;6.054;2023-07-13T02:22:30;100105.53;;;16.19;65.73
59825;BME280;45703;50.898;6.054;2023-07-13T02:24:55;100109.84;;;16.20;65.26
59825;BME280;45703;50.898;6.054;2023-07-13T02:27:20;100102.81;;;16.14;65.45
59825;BME280;45703;50.898;6.054;2023-07-13T02:29:46;100108.72;;;16.11;65.97
59825;BME280;45703;50.898;6.054;2023-07-13T02:32:11;100109.28;;;16.13;65.70
59825;BME280;45703;50.898;6.054;2023-07-13T02:34:38;100110.88;;;16.09;65.26
59825;BME280;45703;50.898;6.054;2023-07-13T02:37:04;100116.81;;;16.11;66.17
59825;BME280;45703;50.898;6.054;2023-07-13T02:39:29;100118.13;;;16.08;66.40
59825;BME280;45703;50.898;6.054;2023-07-13T02:41:58;100121.63;;;16.09;66.39
59825;BME280;45703;50.898;6.054;2023-07-13T02:44:23;100118.09;;;16.03;67.59
59825;BME280;45703;50.898;6.054;2023-07-13T02:46:49;100119.16;;;16.02;66.71
59825;BME280;45703;50.898;6.054;2023-07-13T02:49:14;100118.84;;;15.99;67.07
59825;BME280;45703;50.898;6.054;2023-07-13T02:51:39;100122.88;;;15.96;66.82
59825;BME280;45703;50.898;6.054;2023-07-13T02:54:05;100122.84;;;15.92;67.88
59825;BME280;45703;50.898;6.054;2023-07-13T02:56:33;100118.53;;;15.91;67.07
59825;BME280;45703;50.898;6.054;2023-07-13T02:58:58;100125.56;;;15.92;66.45
59825;BME280;45703;50.898;6.054;2023-07-13T03:01:24;100133.06;;;15.90;67.86
59825;BME280;45703;50.898;6.054;2023-07-13T03:03:50;100124.13;;;15.84;67.22
59825;BME280;45703;50.898;6.054;2023-07-13T03:06:17;100123.06;;;15.85;68.92
59825;BME280;45703;50.898;6.054;2023-07-13T03:08:43;100114.41;;;15.78;68.71
59825;BME280;45703;50.898;6.054;2023-07-13T03:11:11;100112.22;;;15.75;67.36
59825;BME280;45703;50.898;6.054;2023-07-13T03:13:38;100120.03;;;15.77;68.62
59825;BME280;45703;50.898;6.054;2023-07-13T03:16:04;100118.69;;;15.74;69.37
59825;BME280;45703;50.898;6.054;2023-07-13T03:18:30;100132.19;;;15.79;68.37
59825;BME280;45703;50.898;6.054;2023-07-13T03:20:56;100127.81;;;15.73;69.00
59825;BME280;45703;50.898;6.054;2023-07-13T03:23:22;100131.06;;;15.75;69.76
59825;BME280;45703;50.898;6.054;2023-07-13T03:25:47;100128.34;;;15.70;70.53
59825;BME280;45703;50.898;6.054;2023-07-13T03:28:13;100136.13;;;15.72;68.95
59825;BME280;45703;50.898;6.054;2023-07-13T03:30:40;100127.81;;;15.73;69.32
59825;BME280;45703;50.898;6.054;2023-07-13T03:33:05;100133.16;;;15.68;69.52
59825;BME280;45703;50.898;6.054;2023-07-13T03:35:31;100138.00;;;15.66;69.36
59825;BME280;45703;50.898;6.054;2023-07-13T03:37:58;100142.88;;;15.69;69.67
59825;BME280;45703;50.898;6.054;2023-07-13T03:40:24;100136.38;;;15.65;70.22
59825;BME280;45703;50.898;6.054;2023-07-13T03:42:51;100135.25;;;15.61;70.78
59825;BME280;45703;50.898;6.054;2023-07-13T03:45:16;100137.44;;;15.64;70.97
59825;BME280;45703;50.898;6.054;2023-07-13T03:47:42;100147.03;;;15.55;70.92
59825;BME280;45703;50.898;6.054;2023-07-13T03:50:07;100144.41;;;15.60;69.80
59825;BME280;45703;50.898;6.054;2023-07-13T03:52:33;100147.66;;;15.62;70.17
59825;BME280;45703;50.898;6.054;2023-07-13T03:54:58;100156.78;;;15.61;70.67
59825;BME280;45703;50.898;6.054;2023-07-13T03:57:23;100153.22;;;15.56;70.66
59825;BME280;45703;50.898;6.054;2023-07-13T03:59:49;100162.19;;;15.61;71.08
59825;BME280;45703;50.898;6.054;2023-07-13T04:02:14;100151.91;;;15.58;70.81
59825;BME280;45703;50.898;6.054;2023-07-13T04:04:39;100145.94;;;15.56;70.63
59825;BME280;45703;50.898;6.054;2023-07-13T04:07:06;100141.63;;;15.55;70.77
59825;BME280;45703;50.898;6.054;2023-07-13T04:09:32;100155.69;;;15.57;72.04
59825;BME280;45703;50.898;6.054;2023-07-13T04:11:57;100162.69;;;15.58;71.16
59825;BME280;45703;50.898;6.054;2023-07-13T04:14:23;100156.44;;;15.53;72.05
59825;BME280;45703;50.898;6.054;2023-07-13T04:16:48;100160.19;;;15.52;71.48
59825;BME280;45703;50.898;6.054;2023-07-13T04:19:14;100165.38;;;15.58;73.02
59825;BME280;45703;50.898;6.054;2023-07-13T04:21:39;100176.94;;;15.59;71.79
59825;BME280;45703;50.898;6.054;2023-07-13T04:24:05;100166.19;;;15.59;71.43
59825;BME280;45703;50.898;6.054;2023-07-13T04:26:30;100167.03;;;15.64;72.04
59825;BME280;45703;50.898;6.054;2023-07-13T04:28:56;100169.75;;;15.64;72.35
59825;BME280;45703;50.898;6.054;2023-07-13T04:31:22;100178.59;;;15.65;71.89
59825;BME280;45703;50.898;6.054;2023-07-13T04:33:48;100169.97;;;15.63;72.59
59825;BME280;45703;50.898;6.054;2023-07-13T04:36:15;100169.75;;;15.64;73.52
59825;BME280;45703;50.898;6.054;2023-07-13T04:38:41;100184.91;;;15.75;72.49
59825;BME280;45703;50.898;6.054;2023-07-13T04:41:07;100171.41;;;15.70;72.53
59825;BME280;45703;50.898;6.054;2023-07-13T04:43:33;100174.19;;;15.80;73.03
59825;BME280;45703;50.898;6.054;2023-07-13T04:46:07;100181.75;;;15.83;72.41
59825;BME280;45703;50.898;6.054;2023-07-13T04:48:33;100176.16;;;15.90;73.71
59825;BME280;45703;50.898;6.054;2023-07-13T04:50:59;100176.44;;;15.93;72.94
59825;BME280;45703;50.898;6.054;2023-07-13T04:53:25;100189.72;;;16.04;73.18
59825;BME280;45703;50.898;6.054;2023-07-13T04:55:52;100190.09;;;16.18;73.04
59825;BME280;45703;50.898;6.054;2023-07-13T04:58:18;100192.84;;;16.23;72.75
59825;BME280;45703;50.898;6.054;2023-07-13T05:00:43;100198.53;;;16.31;74.08
59825;BME280;45703;50.898;6.054;2023-07-13T05:03:08;100181.09;;;16.34;73.07
59825;BME280;45703;50.898;6.054;2023-07-13T05:05:34;100189.81;;;16.51;72.46
59825;BME280;45703;50.898;6.054;2023-07-13T05:08:00;100203.25;;;16.46;72.76
59825;BME280;45703;50.898;6.054;2023-07-13T05:10:25;100206.25;;;16.49;73.86
59825;BME280;45703;50.898;6.054;2023-07-13T05:12:51;100203.81;;;16.48;73.26
59825;BME280;45703;50.898;6.054;2023-07-13T05:15:16;100205.44;;;16.49;73.06
59825;BME280;45703;50.898;6.054;2023-07-13T05:17:46;100205.97;;;16.51;72.79
59825;BME280;45703;50.898;6.054;2023-07-13T05:20:12;100212.78;;;16.58;73.42
59825;BME280;45703;50.898;6.054;2023-07-13T05:22:37;100214.16;;;16.61;72.43
59825;BME280;45703;50.898;6.054;2023-07-13T05:25:06;100213.88;;;16.62;72.89
59825;BME280;45703;50.898;6.054;2023-07-13T05:27:33;100216.31;;;16.64;72.57
59825;BME280;45703;50.898;6.054;2023-07-13T05:29:59;100210.69;;;16.70;73.18
59825;BME280;45703;50.898;6.054;2023-07-13T05:32:25;100210.97;;;16.69;73.22
59825;BME280;45703;50.898;6.054;2023-07-13T05:34:50;100220.66;;;16.70;73.81
59825;BME280;45703;50.898;6.054;2023-07-13T05:37:16;100221.97;;;16.67;73.79
59825;BME280;45703;50.898;6.054;2023-07-13T05:39:41;100211.69;;;16.59;73.53
59825;BME280;45703;50.898;6.054;2023-07-13T05:42:06;100223.59;;;16.68;73.92
59825;BME280;45703;50.898;6.054;2023-07-13T05:44:32;100219.63;;;16.76;73.02
59825;BME280;45703;50.898;6.054;2023-07-13T05:46:57;100228.53;;;16.81;74.08
59825;BME280;45703;50.898;6.054;2023-07-13T05:49:23;100219.41;;;16.87;73.74
59825;BME280;45703;50.898;6.054;2023-07-13T05:51:48;100230.25;;;16.97;73.25
59825;BME280;45703;50.898;6.054;2023-07-13T05:54:14;100218.59;;;16.92;73.34
59825;BME280;45703;50.898;6.054;2023-07-13T05:56:39;100240.78;;;17.04;73.44
59825;BME280;45703;50.898;6.054;2023-07-13T05:59:05;100235.69;;;17.07;73.36
59825;BME280;45703;50.898;6.054;2023-07-13T06:01:31;100245.94;;;17.10;72.79
59825;BME280;45703;50.898;6.054;2023-07-13T06:03:56;100234.91;;;17.12;72.94
59825;BME280;45703;50.898;6.054;2023-07-13T06:06:22;100240.00;;;17.08;74.10
59825;BME280;45703;50.898;6.054;2023-07-13T06:08:47;100242.47;;;17.15;73.93
59825;BME280;45703;50.898;6.054;2023-07-13T06:11:19;100237.09;;;17.20;73.28
59825;BME280;45703;50.898;6.054;2023-07-13T06:13:45;100251.94;;;17.27;73.38
59825;BME280;45703;50.898;6.054;2023-07-13T06:16:12;100243.59;;;17.24;73.82
59825;BME280;45703;50.898;6.054;2023-07-13T06:18:38;100251.16;;;17.32;72.79
59825;BME280;45703;50.898;6.054;2023-07-13T06:21:09;100251.69;;;17.29;74.11
59825;BME280;45703;50.898;6.054;2023-07-13T06:23:35;100246.28;;;17.29;74.19
59825;BME280;45703;50.898;6.054;2023-07-13T06:26:01;100262.53;;;17.34;73.34
59825;BME280;45703;50.898;6.054;2023-07-13T06:28:28;100256.91;;;17.40;73.64
59825;BME280;45703;50.898;6.054;2023-07-13T06:30:53;100259.34;;;17.46;73.55
59825;BME280;45703;50.898;6.054;2023-07-13T06:33:18;100262.03;;;17.51;73.15
59825;BME280;45703;50.898;6.054;2023-07-13T06:35:44;100258.81;;;17.49;74.12
59825;BME280;45703;50.898;6.054;2023-07-13T06:38:09;100265.28;;;17.53;74.38
59825;BME280;45703;50.898;6.054;2023-07-13T06:40:35;100267.44;;;17.51;74.06
59825;BME280;45703;50.898;6.054;2023-07-13T06:43:00;100264.47;;;17.48;73.34
59825;BME280;45703;50.898;6.054;2023-07-13T06:45:25;100268.78;;;17.44;73.56
59825;BME280;45703;50.898;6.054;2023-07-13T06:47:51;100273.91;;;17.41;74.37
59825;BME280;45703;50.898;6.054;2023-07-13T06:50:16;100287.91;;;17.38;74.92
59825;BME280;45703;50.898;6.054;2023-07-13T06:52:42;100287.91;;;17.33;75.18
59825;BME280;45703;50.898;6.054;2023-07-13T06:55:07;100278.16;;;17.32;74.94
59825;BME280;45703;50.898;6.054;2023-07-13T06:57:33;100280.84;;;17.32;75.26
59825;BME280;45703;50.898;6.054;2023-07-13T06:59:58;100287.31;;;17.31;75.23
59825;BME280;45703;50.898;6.054;2023-07-13T07:02:24;100282.44;;;17.28;75.26
59825;BME280;45703;50.898;6.054;2023-07-13T07:04:49;100292.72;;;17.31;75.04
59825;BME280;45703;50.898;6.054;2023-07-13T07:07:15;100293.88;;;17.44;75.79
59825;BME280;45703;50.898;6.054;2023-07-13T07:09:41;100286.34;;;17.51;74.93
59825;BME280;45703;50.898;6.054;2023-07-13T07:12:06;100293.13;;;17.54;75.33
59825;BME280;45703;50.898;6.054;2023-07-13T07:14:32;100292.31;;;17.58;74.72
59825;BME280;45703;50.898;6.054;2023-07-13T07:16:59;100292.59;;;17.67;75.40
59825;BME280;45703;50.898;6.054;2023-07-13T07:19:24;100297.47;;;17.75;75.13
59825;BME280;45703;50.898;6.054;2023-07-13T07:21:50;100301.03;;;17.80;75.25
59825;BME280;45703;50.898;6.054;2023-07-13T07:24:18;100305.88;;;17.83;74.33
59825;BME280;45703;50.898;6.054;2023-07-13T07:26:43;100303.19;;;17.88;74.62
59825;BME280;45703;50.898;6.054;2023-07-13T07:29:08;100297.78;;;17.88;74.70
59825;BME280;45703;50.898;6.054;2023-07-13T07:31:34;100292.41;;;17.93;74.30
59825;BME280;45703;50.898;6.054;2023-07-13T07:33:59;100304.84;;;18.04;73.92
59825;BME280;45703;50.898;6.054;2023-07-13T07:36:25;100302.97;;;18.10;74.13
59825;BME280;45703;50.898;6.054;2023-07-13T07:38:50;100298.66;;;18.14;73.94
59825;BME280;45703;50.898;6.054;2023-07-13T07:41:15;100305.13;;;18.23;73.57
59825;BME280;45703;50.898;6.054;2023-07-13T07:43:41;100294.06;;;18.24;73.88
59825;BME280;45703;50.898;6.054;2023-07-13T07:46:06;100312.19;;;18.34;73.60
59825;BME280;45703;50.898;6.054;2023-07-13T07:48:32;100310.31;;;18.39;73.16
59825;BME280;45703;50.898;6.054;2023-07-13T07:50:57;100312.22;;;18.44;72.74
59825;BME280;45703;50.898;6.054;2023-07-13T07:53:23;100299.50;;;18.39;73.10
59825;BME280;45703;50.898;6.054;2023-07-13T07:55:48;100317.34;;;18.50;72.24
59825;BME280;45703;50.898;6.054;2023-07-13T07:58:15;100313.31;;;18.53;72.14
59825;BME280;45703;50.898;6.054;2023-07-13T08:00:41;100320.59;;;18.62;71.62
59825;BME280;45703;50.898;6.054;2023-07-13T08:03:06;100308.13;;;18.61;71.11
59825;BME280;45703;50.898;6.054;2023-07-13T08:05:35;100309.78;;;18.67;71.06
59825;BME280;45703;50.898;6.054;2023-07-13T08:08:01;100316.28;;;18.71;71.53
59825;BME280;45703;50.898;6.054;2023-07-13T08:10:29;100303.84;;;18.70;71.28
59825;BME280;45703;50.898;6.054;2023-07-13T08:12:56;100314.09;;;18.83;70.88
59825;BME280;45703;50.898;6.054;2023-07-13T08:15:22;100299.19;;;18.86;71.02
59825;BME280;45703;50.898;6.054;2023-07-13T08:17:48;100304.06;;;18.93;71.14
59825;BME280;45703;50.898;6.054;2023-07-13T08:20:13;100306.19;;;19.06;70.72
59825;BME280;45703;50.898;6.054;2023-07-13T08:22:39;100303.50;;;19.16;69.88
59825;BME280;45703;50.898;6.054;2023-07-13T08:25:05;100312.66;;;19.25;69.68
59825;BME280;45703;50.898;6.054;2023-07-13T08:27:30;100314.56;;;19.30;69.42
59825;BME280;45703;50.898;6.054;2023-07-13T08:29:56;100317.78;;;19.32;69.20
59825;BME280;45703;50.898;6.054;2023-07-13T08:32:22;100309.94;;;19.30;69.95
59825;BME280;45703;50.898;6.054;2023-07-13T08:34:48;100308.59;;;19.33;69.22
59825;BME280;45703;50.898;6.054;2023-07-13T08:37:14;100296.38;;;19.35;68.81
59825;BME280;45703;50.898;6.054;2023-07-13T08:39:40;100309.03;;;19.50;68.98
59825;BME280;45703;50.898;6.054;2023-07-13T08:45:07;100303.03;;;19.63;68.76
59825;BME280;45703;50.898;6.054;2023-07-13T08:47:38;100292.97;;;19.68;68.38
59825;BME280;45703;50.898;6.054;2023-07-13T08:50:13;100304.06;;;19.77;67.86
59825;BME280;45703;50.898;6.054;2023-07-13T08:52:41;100288.38;;;19.74;67.74
59825;BME280;45703;50.898;6.054;2023-07-13T08:55:18;100296.47;;;19.79;67.67
59825;BME280;45703;50.898;6.054;2023-07-13T08:57:50;100297.00;;;19.81;68.11
59825;BME280;45703;50.898;6.054;2023-07-13T09:00:18;100288.28;;;19.84;67.71
59825;BME280;45703;50.898;6.054;2023-07-13T09:02:56;100299.34;;;19.97;68.63
59825;BME280;45703;50.898;6.054;2023-07-13T09:05:30;100294.66;;;20.08;67.71
59825;BME280;45703;50.898;6.054;2023-07-13T09:08:36;100292.44;;;20.20;67.38
59825;BME280;45703;50.898;6.054;2023-07-13T09:11:12;100299.97;;;20.28;66.54
59825;BME280;45703;50.898;6.054;2023-07-13T09:13:43;100293.44;;;20.29;65.85
59825;BME280;45703;50.898;6.054;2023-07-13T09:16:12;100287.81;;;20.20;66.68
59825;BME280;45703;50.898;6.054;2023-07-13T09:18:43;100300.53;;;20.25;65.80
59825;BME280;45703;50.898;6.054;2023-07-13T09:21:16;100294.84;;;20.21;66.02
59825;BME280;45703;50.898;6.054;2023-07-13T09:23:42;100297.34;;;20.18;66.13
59825;BME280;45703;50.898;6.054;2023-07-13T09:26:20;100297.03;;;20.19;66.72
59825;BME280;45703;50.898;6.054;2023-07-13T09:29:03;100289.72;;;20.20;66.21
59825;BME280;45703;50.898;6.054;2023-07-13T09:31:52;100285.88;;;20.26;66.32
59825;BME280;45703;50.898;6.054;2023-07-13T09:34:19;100291.53;;;20.29;66.32
59825;BME280;45703;50.898;6.054;2023-07-13T09:36:44;100288.53;;;20.31;66.24
59825;BME280;45703;50.898;6.054;2023-07-13T09:39:28;100283.69;;;20.28;66.20
59825;BME280;45703;50.898;6.054;2023-07-13T09:42:11;100294.75;;;20.31;66.17
59825;BME280;45703;50.898;6.054;2023-07-13T09:44:50;100293.66;;;20.32;66.26
59825;BME280;45703;50.898;6.054;2023-07-13T09:47:22;100288.50;;;20.36;66.46
59825;BME280;45703;50.898;6.054;2023-07-13T09:49:54;100284.91;;;20.45;67.18
59825;BME280;45703;50.898;6.054;2023-07-13T09:52:20;100292.91;;;20.60;66.07
59825;BME280;45703;50.898;6.054;2023-07-13T09:54:51;100294.69;;;20.74;65.36
59825;BME280;45703;50.898;6.054;2023-07-13T09:57:23;100292.63;;;20.90;65.47
59825;BME280;45703;50.898;6.054;2023-07-13T09:59:50;100290.09;;;20.98;64.05
59825;BME280;45703;50.898;6.054;2023-07-13T10:02:30;100300.78;;;21.13;62.63
59825;BME280;45703;50.898;6.054;2023-07-13T10:05:06;100293.47;;;21.14;62.84
59825;BME280;45703;50.898;6.054;2023-07-13T10:07:38;100298.66;;;21.10;62.86
59825;BME280;45703;50.898;6.054;2023-07-13T10:10:14;100309.53;;;21.10;62.60
59825;BME280;45703;50.898;6.054;2023-07-13T10:12:40;100296.56;;;21.02;63.01
59825;BME280;45703;50.898;6.054;2023-07-13T10:15:10;100308.72;;;21.10;62.64
59825;BME280;45703;50.898;6.054;2023-07-13T10:17:39;100297.28;;;21.13;62.45
59825;BME280;45703;50.898;6.054;2023-07-13T10:20:05;100319.72;;;21.23;61.83
59825;BME280;45703;50.898;6.054;2023-07-13T10:22:44;100321.91;;;21.21;61.52
59825;BME280;45703;50.898;6.054;2023-07-13T10:25:38;100313.28;;;21.38;61.92
59825;BME280;45703;50.898;6.054;2023-07-13T10:31:13;100321.19;;;21.58;59.76
59825;BME280;45703;50.898;6.054;2023-07-13T10:33:40;100326.41;;;21.54;59.92
59825;BME280;45703;50.898;6.054;2023-07-13T10:36:21;100318.09;;;21.46;59.85
59825;BME280;45703;50.898;6.054;2023-07-13T10:38:50;100321.34;;;21.48;60.08
59825;BME280;45703;50.898;6.054;2023-07-13T10:41:19;100314.50;;;21.50;60.05
59825;BME280;45703;50.898;6.054;2023-07-13T10:43:56;100324.06;;;21.48;59.96
59825;BME280;45703;50.898;6.054;2023-07-13T10:46:24;100321.38;;;21.43;58.24
59825;BME280;45703;50.898;6.054;2023-07-13T10:48:55;100325.88;;;21.52;58.76
59825;BME280;45703;50.898;6.054;2023-07-13T10:51:22;100326.00;;;21.66;59.31
59825;BME280;45703;50.898;6.054;2023-07-13T10:54:17;100324.06;;;21.90;58.64
59825;BME280;45703;50.898;6.054;2023-07-13T10:56:44;100325.25;;;22.02;57.69
59825;BME280;45703;50.898;6.054;2023-07-13T10:59:17;100337.50;;;22.18;58.20
59825;BME280;45703;50.898;6.054;2023-07-13T11:01:54;100327.47;;;22.37;58.11
59825;BME280;45703;50.898;6.054;2023-07-13T11:04:22;100318.91;;;22.43;57.64
59825;BME280;45703;50.898;6.054;2023-07-13T11:06:52;100330.03;;;22.47;56.66
59825;BME280;45703;50.898;6.054;2023-07-13T11:09:39;100332.31;;;22.40;56.80
59825;BME280;45703;50.898;6.054;2023-07-13T11:15:13;100337.38;;;22.28;56.85
59825;BME280;45703;50.898;6.054;2023-07-13T11:17:54;100311.66;;;22.20;57.27
59825;BME280;45703;50.898;6.054;2023-07-13T11:20:42;100323.41;;;22.16;57.92
59825;BME280;45703;50.898;6.054;2023-07-13T11:23:17;100331.63;;;22.11;56.64
59825;BME280;45703;50.898;6.054;2023-07-13T11:25:44;100343.47;;;22.01;55.73
59825;BME280;45703;50.898;6.054;2023-07-13T11:38:28;100316.06;;;22.35;56.43
59825;BME280;45703;50.898;6.054;2023-07-13T11:40:55;100319.97;;;22.47;56.32
59825;BME280;45703;50.898;6.054;2023-07-13T11:43:23;100317.66;;;22.54;56.58
59825;BME280;45703;50.898;6.054;2023-07-13T11:45:50;100320.41;;;22.68;57.66
59825;BME280;45703;50.898;6.054;2023-07-13T11:48:34;100322.91;;;22.83;56.36
59825;BME280;45703;50.898;6.054;2023-07-13T11:51:03;100316.94;;;22.94;55.71
59825;BME280;45703;50.898;6.054;2023-07-13T11:53:37;100304.66;;;22.97;55.60
59825;BME280;45703;50.898;6.054;2023-07-13T11:56:03;100316.91;;;23.13;54.89
59825;BME280;45703;50.898;6.054;2023-07-13T11:58:30;100308.13;;;23.16;54.75
59825;BME280;45703;50.898;6.054;2023-07-13T12:00:58;100317.72;;;23.13;52.99
59825;BME280;45703;50.898;6.054;2023-07-13T12:03:25;100312.88;;;23.10;52.30
59825;BME280;45703;50.898;6.054;2023-07-13T12:06:25;100306.91;;;23.08;53.18
59825;BME280;45703;50.898;6.054;2023-07-13T12:09:01;100314.59;;;23.20;53.52
59825;BME280;45703;50.898;6.054;2023-07-13T12:11:29;100316.31;;;23.29;52.47
59825;BME280;45703;50.898;6.054;2023-07-13T12:13:55;100300.88;;;23.38;50.52
59825;BME280;45703;50.898;6.054;2023-07-13T12:16:28;100321.78;;;23.43;51.41
59825;BME280;45703;50.898;6.054;2023-07-13T12:18:55;100321.78;;;23.43;50.81
59825;BME280;45703;50.898;6.054;2023-07-13T12:21:26;100307.84;;;23.44;51.15
59825;BME280;45703;50.898;6.054;2023-07-13T12:23:54;100323.00;;;23.50;51.35
59825;BME280;45703;50.898;6.054;2023-07-13T12:26:19;100312.50;;;23.44;49.65
59825;BME280;45703;50.898;6.054;2023-07-13T12:28:51;100320.34;;;23.45;50.34
59825;BME280;45703;50.898;6.054;2023-07-13T12:31:39;100318.13;;;23.47;50.21
59825;BME280;45703;50.898;6.054;2023-07-13T12:34:15;100313.09;;;23.41;50.18
59825;BME280;45703;50.898;6.054;2023-07-13T12:36:55;100317.34;;;23.47;50.67
59825;BME280;45703;50.898;6.054;2023-07-13T12:41:52;100323.69;;;23.55;50.72
59825;BME280;45703;50.898;6.054;2023-07-13T12:44:28;100309.88;;;23.52;51.20
59825;BME280;45703;50.898;6.054;2023-07-13T12:47:02;100323.41;;;23.57;49.33
59825;BME280;45703;50.898;6.054;2023-07-13T12:49:31;100323.69;;;23.55;49.75
59825;BME280;45703;50.898;6.054;2023-07-13T12:52:01;100327.63;;;23.49;50.09
59825;BME280;45703;50.898;6.054;2023-07-13T12:54:28;100314.41;;;23.43;50.43
59825;BME280;45703;50.898;6.054;2023-07-13T12:56:55;100318.56;;;23.41;51.16
59825;BME280;45703;50.898;6.054;2023-07-13T12:59:25;100306.03;;;23.40;50.58
59825;BME280;45703;50.898;6.054;2023-07-13T13:01:53;100309.66;;;23.48;50.20
59825;BME280;45703;50.898;6.054;2023-07-13T13:04:19;100321.47;;;23.57;50.23
59825;BME280;45703;50.898;6.054;2023-07-13T13:06:47;100316.50;;;23.59;50.52
59825;BME280;45703;50.898;6.054;2023-07-13T13:09:15;100304.00;;;23.58;50.37
59825;BME280;45703;50.898;6.054;2023-07-13T13:11:41;100324.38;;;23.74;50.68
59825;BME280;45703;50.898;6.054;2023-07-13T13:14:07;100309.84;;;23.92;51.55
59825;BME280;45703;50.898;6.054;2023-07-13T13:16:46;100320.91;;;24.09;49.46
59825;BME280;45703;50.898;6.054;2023-07-13T13:21:42;100311.75;;;24.27;48.58
59825;BME280;45703;50.898;6.054;2023-07-13T13:24:16;100309.66;;;24.24;49.66